Time;durP1;ratioP1;P1;durP2;ratioP2;P2;SDS_P1;SDS_P2;PMS_P1;PMS_P2;Temp;Humidity;BMP_temperature;BMP_pressure;BME280_temperature;BME280_humidity;BME280_pressure;Samples;Min_cycle;Max_cycle;Signal;HPM_P1;HPM_P2
2023/12/15 00:00:02;;;;;;;21.20;11.10;;;7.60;99.90;;;;;;6294744;28;20048;-84
2023/12/15 00:03:04;;;;;;;20.42;11.18;;;7.60;99.90;;;;;;6319575;28;20434;-84
2023/12/15 00:06:06;;;;;;;19.10;11.13;;;7.60;99.90;;;;;;6319072;28;20055;-84
2023/12/15 00:09:07;;;;;;;21.38;11.65;;;7.60;99.90;;;;;;6293902;28;20522;-85
2023/12/15 00:12:09;;;;;;;24.20;11.52;;;7.60;99.90;;;;;;6319831;28;20059;-85
2023/12/15 00:15:11;;;;;;;24.70;12.13;;;7.60;99.90;;;;;;6319366;28;20058;-85
2023/12/15 00:18:12;;;;;;;24.98;11.05;;;7.60;99.90;;;;;;6320464;28;20055;-85
2023/12/15 00:21:14;;;;;;;22.95;10.77;;;7.70;99.90;;;;;;6305348;28;20063;-83
2023/12/15 00:24:16;;;;;;;21.50;11.38;;;7.60;99.90;;;;;;6319387;28;20499;-85
2023/12/15 00:27:17;;;;;;;25.25;11.55;;;7.60;99.90;;;;;;6294937;28;20408;-85
2023/12/15 00:30:19;;;;;;;21.33;10.65;;;7.60;99.90;;;;;;6317144;28;20051;-85
2023/12/15 00:33:21;;;;;;;19.88;10.43;;;7.60;99.90;;;;;;6319981;28;20139;-85
2023/12/15 00:36:23;;;;;;;20.73;10.02;;;7.60;99.90;;;;;;6305288;28;20241;-84
2023/12/15 00:39:24;;;;;;;21.23;10.13;;;7.70;99.90;;;;;;6320131;28;20439;-84
2023/12/15 00:42:26;;;;;;;26.33;9.65;;;7.70;99.90;;;;;;6313389;28;20060;-85
2023/12/15 00:45:28;;;;;;;20.63;10.32;;;7.70;99.90;;;;;;6315759;28;20502;-84
2023/12/15 00:48:29;;;;;;;23.15;10.13;;;7.70;99.90;;;;;;6294357;28;20416;-85
2023/12/15 00:51:31;;;;;;;22.02;9.32;;;7.70;99.90;;;;;;6317876;28;20055;-85
2023/12/15 00:54:33;;;;;;;17.88;9.38;;;7.70;99.90;;;;;;6318561;28;20060;-84
2023/12/15 00:57:35;;;;;;;20.63;9.43;;;7.70;99.90;;;;;;6294444;28;20083;-85
2023/12/15 01:00:37;;;;;;;21.33;9.15;;;7.70;99.90;;;;;;6317124;28;20415;-85
2023/12/15 01:03:38;;;;;;;22.90;8.88;;;7.70;99.90;;;;;;6310264;28;20136;-85
2023/12/15 01:06:40;;;;;;;22.70;8.82;;;7.70;99.90;;;;;;6319768;28;20062;-85
2023/12/15 01:09:43;;;;;;;17.52;8.48;;;7.80;99.90;;;;;;6317822;28;20052;-84
2023/12/15 01:12:45;;;;;;;19.45;8.38;;;7.70;99.90;;;;;;6317171;28;20059;-85
2023/12/15 01:15:47;;;;;;;24.45;8.65;;;7.70;99.90;;;;;;6315308;28;20060;-86
2023/12/15 01:18:48;;;;;;;18.95;8.20;;;7.70;99.90;;;;;;6295235;28;20052;-86
2023/12/15 01:21:50;;;;;;;20.75;7.82;;;7.70;99.90;;;;;;6335619;28;20787;-86
2023/12/15 01:24:52;;;;;;;22.77;8.80;;;7.70;99.90;;;;;;6319820;28;20048;-86
2023/12/15 01:27:53;;;;;;;21.40;8.88;;;7.70;99.90;;;;;;6318386;28;20154;-86
2023/12/15 01:30:55;;;;;;;24.50;8.35;;;7.70;99.90;;;;;;6316540;28;20052;-85
2023/12/15 01:33:57;;;;;;;19.55;8.07;;;7.70;99.90;;;;;;6293530;28;20052;-86
2023/12/15 01:36:59;;;;;;;20.85;7.97;;;7.70;99.90;;;;;;6333856;28;20063;-85
2023/12/15 01:40:00;;;;;;;19.73;8.05;;;7.60;99.90;;;;;;6320847;28;20054;-85
2023/12/15 01:43:02;;;;;;;18.73;7.95;;;7.60;99.90;;;;;;6298570;28;20048;-85
2023/12/15 01:46:05;;;;;;;18.20;7.70;;;7.60;99.90;;;;;;6319996;28;20047;-85
2023/12/15 01:49:15;;;;;;;20.48;7.63;;;7.60;99.90;;;;;;6308630;28;20060;-85
2023/12/15 01:52:17;;;;;;;24.42;7.75;;;7.60;99.90;;;;;;6317654;28;20453;-85
2023/12/15 01:55:18;;;;;;;21.35;8.07;;;7.50;99.90;;;;;;6294988;28;20415;-85
2023/12/15 01:58:20;;;;;;;18.33;7.18;;;7.60;99.90;;;;;;6312280;28;20052;-85
2023/12/15 02:01:22;;;;;;;24.58;8.10;;;7.50;99.90;;;;;;6320240;28;20054;-84
2023/12/15 02:04:24;;;;;;;19.83;7.28;;;7.50;99.90;;;;;;6321231;28;20060;-83
2023/12/15 02:07:25;;;;;;;25.35;8.07;;;7.50;99.90;;;;;;6298168;28;20052;-85
2023/12/15 02:10:27;;;;;;;21.08;7.85;;;7.50;99.90;;;;;;6323292;28;20052;-85
2023/12/15 02:13:29;;;;;;;26.30;8.05;;;7.50;99.90;;;;;;6320065;28;20059;-85
2023/12/15 02:16:31;;;;;;;20.58;7.90;;;7.50;99.90;;;;;;6323010;28;20056;-85
2023/12/15 02:19:32;;;;;;;18.42;6.70;;;7.50;99.90;;;;;;6322204;28;20051;-84
2023/12/15 02:22:34;;;;;;;21.88;7.03;;;7.50;99.90;;;;;;6322230;28;20064;-85
2023/12/15 02:25:35;;;;;;;23.27;7.70;;;7.50;99.90;;;;;;6297725;28;20063;-84
2023/12/15 02:28:37;;;;;;;22.70;7.53;;;7.40;99.90;;;;;;6310071;28;20063;-85
2023/12/15 02:31:39;;;;;;;27.10;7.57;;;7.40;99.90;;;;;;6322509;28;20066;-84
2023/12/15 02:34:40;;;;;;;22.45;7.05;;;7.40;99.90;;;;;;6321234;28;20051;-83
2023/12/15 02:37:42;;;;;;;23.50;7.10;;;7.40;99.90;;;;;;6337912;28;20400;-85
2023/12/15 02:40:44;;;;;;;20.02;6.28;;;7.40;99.90;;;;;;6320583;28;20056;-84
2023/12/15 02:43:46;;;;;;;20.02;6.53;;;7.40;99.90;;;;;;6317618;28;20499;-84
2023/12/15 02:46:47;;;;;;;20.67;6.45;;;7.50;99.90;;;;;;6320940;28;20059;-84
2023/12/15 02:49:49;;;;;;;22.42;6.30;;;7.40;99.90;;;;;;6322063;28;20051;-84
2023/12/15 02:52:50;;;;;;;21.50;6.63;;;7.30;99.90;;;;;;6322446;28;20044;-85
2023/12/15 02:55:52;;;;;;;21.08;7.28;;;7.30;99.90;;;;;;6320873;28;20606;-84
2023/12/15 02:58:54;;;;;;;23.23;6.90;;;7.20;99.90;;;;;;6302828;28;20161;-85
2023/12/15 03:01:55;;;;;;;25.48;6.68;;;7.20;99.90;;;;;;6320680;28;20047;-84
2023/12/15 03:04:57;;;;;;;23.20;6.30;;;7.20;99.90;;;;;;6319635;28;20411;-85
2023/12/15 03:07:59;;;;;;;20.60;5.95;;;7.20;99.90;;;;;;6321585;28;20226;-86
2023/12/15 03:11:01;;;;;;;23.42;6.38;;;7.20;99.90;;;;;;6319574;28;20127;-86
2023/12/15 03:14:02;;;;;;;19.50;5.70;;;7.10;99.90;;;;;;6307591;28;20064;-87
2023/12/15 03:17:04;;;;;;;24.27;6.03;;;7.10;99.90;;;;;;6320768;28;20055;-86
2023/12/15 03:20:06;;;;;;;26.67;6.65;;;7.10;99.90;;;;;;6324961;28;20526;-84
2023/12/15 03:23:08;;;;;;;26.63;6.03;;;7.10;99.90;;;;;;6322052;28;20052;-85
2023/12/15 03:26:10;;;;;;;22.42;5.90;;;7.10;99.90;;;;;;6300061;28;20097;-84
2023/12/15 03:29:11;;;;;;;20.00;5.97;;;7.00;99.90;;;;;;6318497;28;20396;-85
2023/12/15 03:32:13;;;;;;;20.08;5.78;;;7.00;99.90;;;;;;6295117;28;20070;-85
2023/12/15 03:35:14;;;;;;;25.50;6.28;;;7.00;99.90;;;;;;6320342;28;20056;-85
2023/12/15 03:38:17;;;;;;;23.35;6.50;;;7.00;99.90;;;;;;6318153;28;20052;-85
2023/12/15 03:41:19;;;;;;;21.13;6.07;;;7.00;99.90;;;;;;6321197;28;20054;-85
2023/12/15 03:44:21;;;;;;;27.55;6.07;;;6.90;99.90;;;;;;6307705;28;20483;-85
2023/12/15 03:47:22;;;;;;;31.85;6.53;;;6.80;99.90;;;;;;6308963;28;20113;-85
2023/12/15 03:50:24;;;;;;;26.25;5.75;;;6.90;99.90;;;;;;6320766;28;20056;-85
2023/12/15 03:53:26;;;;;;;21.60;5.63;;;6.80;99.90;;;;;;6320777;28;20056;-85
2023/12/15 03:56:27;;;;;;;18.02;4.90;;;6.80;99.90;;;;;;6302451;28;20051;-86
2023/12/15 03:59:30;;;;;;;25.08;5.55;;;6.80;99.90;;;;;;6318044;28;20051;-85
2023/12/15 04:02:32;;;;;;;25.67;5.95;;;6.70;99.90;;;;;;6294649;28;20083;-84
2023/12/15 04:05:34;;;;;;;24.52;5.93;;;6.70;99.90;;;;;;6319561;28;20158;-85
2023/12/15 04:08:36;;;;;;;19.60;5.72;;;6.80;99.90;;;;;;6320743;28;20052;-85
2023/12/15 04:11:37;;;;;;;21.48;5.53;;;6.80;99.90;;;;;;6319999;28;20488;-84
2023/12/15 04:14:39;;;;;;;23.65;6.07;;;6.80;99.90;;;;;;6316677;28;20077;-84
2023/12/15 04:17:42;;;;;;;22.08;5.20;;;6.80;99.90;;;;;;6319656;28;20097;-85
2023/12/15 04:20:44;;;;;;;23.02;5.40;;;6.80;99.90;;;;;;6318257;28;20055;-86
2023/12/15 04:23:46;;;;;;;19.75;4.97;;;6.70;99.90;;;;;;6319113;28;20143;-85
2023/12/15 04:26:47;;;;;;;22.85;5.38;;;6.70;99.90;;;;;;6319680;28;20125;-84
2023/12/15 04:29:49;;;;;;;24.08;5.68;;;6.70;99.90;;;;;;6318907;28;20518;-84
2023/12/15 04:32:50;;;;;;;22.65;5.05;;;6.70;99.90;;;;;;6318110;28;20056;-85
2023/12/15 04:35:52;;;;;;;28.45;5.97;;;6.70;99.90;;;;;;6293848;28;20397;-85
2023/12/15 04:38:54;;;;;;;24.77;6.00;;;6.70;99.90;;;;;;6318212;28;20235;-85
2023/12/15 04:41:56;;;;;;;18.80;4.47;;;6.70;99.90;;;;;;6319193;28;20060;-85
2023/12/15 04:44:57;;;;;;;21.58;5.03;;;6.70;99.90;;;;;;6312296;28;20129;-85
2023/12/15 04:47:59;;;;;;;23.80;4.95;;;6.80;99.90;;;;;;6317944;28;20468;-85
2023/12/15 04:51:01;;;;;;;21.02;5.00;;;6.80;99.90;;;;;;6318724;28;20059;-86
2023/12/15 04:54:02;;;;;;;26.02;5.40;;;6.70;99.90;;;;;;6318707;28;20059;-85
2023/12/15 04:57:04;;;;;;;20.23;4.72;;;6.70;99.90;;;;;;6303671;28;20160;-86
2023/12/15 05:00:07;;;;;;;19.38;4.47;;;6.70;99.90;;;;;;6314186;28;20498;-85
2023/12/15 05:03:08;;;;;;;16.80;4.35;;;6.70;99.90;;;;;;6317735;28;20055;-85
2023/12/15 05:06:10;;;;;;;20.75;5.03;;;6.80;99.90;;;;;;6317032;28;20403;-86
2023/12/15 05:09:12;;;;;;;19.73;4.72;;;6.80;99.90;;;;;;6319478;28;20774;-85
2023/12/15 05:12:14;;;;;;;27.90;5.10;;;6.80;99.90;;;;;;6317934;28;20439;-85
2023/12/15 05:15:15;;;;;;;18.33;4.68;;;6.80;99.90;;;;;;6313284;28;20078;-86
2023/12/15 05:18:17;;;;;;;20.48;4.72;;;6.80;99.90;;;;;;6319158;28;20120;-86
2023/12/15 05:21:20;;;;;;;24.75;5.13;;;6.80;99.90;;;;;;6318419;28;20765;-85
2023/12/15 05:24:21;;;;;;;21.60;4.90;;;6.90;99.90;;;;;;6295127;28;20076;-85
2023/12/15 05:27:24;;;;;;;20.83;4.70;;;6.90;99.90;;;;;;6318355;28;20443;-86
2023/12/15 05:30:25;;;;;;;26.52;4.95;;;6.90;99.90;;;;;;6316762;28;20055;-85
2023/12/15 05:33:27;;;;;;;16.85;4.32;;;6.80;99.90;;;;;;6295007;28;20050;-86
2023/12/15 05:36:29;;;;;;;25.85;5.07;;;6.80;99.90;;;;;;6328464;28;20056;-86
2023/12/15 05:39:30;;;;;;;20.33;4.13;;;6.80;99.90;;;;;;6326088;28;20518;-85
2023/12/15 05:42:32;;;;;;;21.20;4.45;;;6.80;99.90;;;;;;6301245;28;20055;-86
2023/12/15 05:45:34;;;;;;;24.67;4.50;;;6.70;99.90;;;;;;6322487;28;20080;-85
2023/12/15 05:48:35;;;;;;;19.73;4.30;;;6.70;99.90;;;;;;6297761;28;20491;-86
2023/12/15 05:51:37;;;;;;;14.98;3.75;;;6.70;99.90;;;;;;6323182;28;20052;-86
2023/12/15 05:54:42;;;;;;;23.38;4.53;;;6.70;99.90;;;;;;6323372;28;20047;-85
2023/12/15 05:57:43;;;;;;;17.52;4.10;;;6.60;99.90;;;;;;6319816;28;20071;-85
2023/12/15 06:00:45;;;;;;;20.38;4.38;;;6.60;99.90;;;;;;6296535;28;20416;-85
2023/12/15 06:03:47;;;;;;;23.73;4.43;;;6.60;99.90;;;;;;6303854;28;20060;-86
2023/12/15 06:06:48;;;;;;;23.60;4.88;;;6.60;99.90;;;;;;6323098;28;20593;-86
2023/12/15 06:09:50;;;;;;;22.58;4.60;;;6.60;99.90;;;;;;6321718;28;20048;-86
2023/12/15 06:12:52;;;;;;;17.98;3.80;;;6.50;99.90;;;;;;6320042;28;20044;-85
2023/12/15 06:15:53;;;;;;;23.05;4.40;;;6.50;99.90;;;;;;6324109;28;20059;-87
2023/12/15 06:18:55;;;;;;;21.80;4.25;;;6.50;99.90;;;;;;6322725;28;20051;-86
2023/12/15 06:21:56;;;;;;;22.17;4.32;;;6.50;99.90;;;;;;6313175;28;20055;-85
2023/12/15 06:24:58;;;;;;;19.42;4.18;;;6.50;99.90;;;;;;6322912;28;20483;-85
2023/12/15 06:28:00;;;;;;;23.20;4.13;;;6.40;99.90;;;;;;6321067;28;20054;-85
2023/12/15 06:31:01;;;;;;;18.20;4.20;;;6.40;99.90;;;;;;6319841;28;20451;-85
2023/12/15 06:34:03;;;;;;;22.35;4.30;;;6.30;99.90;;;;;;6322756;28;20048;-85
2023/12/15 06:37:05;;;;;;;17.58;3.85;;;6.30;99.90;;;;;;6320667;28;20079;-84
2023/12/15 06:40:07;;;;;;;18.60;3.85;;;6.20;99.90;;;;;;6321365;28;20047;-84
2023/12/15 06:43:09;;;;;;;18.40;3.85;;;6.10;99.90;;;;;;6318117;28;20412;-84
2023/12/15 06:46:10;;;;;;;17.25;3.50;;;6.00;99.90;;;;;;6321103;28;20044;-84
2023/12/15 06:49:12;;;;;;;12.90;3.85;;;5.80;99.90;;;;;;6296506;28;20060;-85
2023/12/15 06:52:16;;;;;;;19.30;4.35;;;5.70;99.90;;;;;;6322981;28;20044;-85
2023/12/15 06:55:20;;;;;;;20.00;4.53;;;5.60;99.90;;;;;;6296665;28;20089;-84
2023/12/15 06:58:21;;;;;;;24.58;7.55;;;5.50;99.90;;;;;;6312265;28;20056;-84
2023/12/15 07:01:23;;;;;;;20.95;4.65;;;5.40;99.90;;;;;;6321842;28;20062;-84
2023/12/15 07:04:24;;;;;;;23.35;4.22;;;5.30;99.90;;;;;;6319471;28;20152;-84
2023/12/15 07:07:26;;;;;;;16.95;3.60;;;5.20;99.90;;;;;;6305060;28;20466;-83
2023/12/15 07:10:28;;;;;;;20.10;4.68;;;5.20;99.90;;;;;;6323304;28;20059;-83
2023/12/15 07:13:29;;;;;;;19.05;4.38;;;5.10;99.90;;;;;;6304720;28;20051;-83
2023/12/15 07:16:31;;;;;;;19.42;4.07;;;5.00;99.90;;;;;;6298365;28;20415;-84
2023/12/15 07:19:33;;;;;;;20.80;3.88;;;4.90;99.90;;;;;;6324290;28;20517;-85
2023/12/15 07:22:34;;;;;;;19.35;3.90;;;4.90;99.90;;;;;;6298802;28;20058;-84
2023/12/15 07:25:37;;;;;;;20.48;4.20;;;4.80;99.90;;;;;;6330107;28;20058;-86
2023/12/15 07:28:39;;;;;;;17.25;3.70;;;4.70;99.90;;;;;;6315185;28;20060;-85
2023/12/15 07:31:40;;;;;;;19.15;3.45;;;4.60;99.90;;;;;;6296667;28;20068;-84
2023/12/15 07:34:42;;;;;;;20.13;4.00;;;4.50;99.90;;;;;;6319136;28;20133;-83
2023/12/15 07:37:43;;;;;;;19.88;3.75;;;4.50;99.90;;;;;;6295680;28;20060;-83
2023/12/15 07:40:45;;;;;;;23.13;4.30;;;4.40;99.90;;;;;;6318283;28;20059;-84
2023/12/15 07:43:47;;;;;;;23.00;4.38;;;4.30;99.90;;;;;;6305605;28;20052;-85
2023/12/15 07:46:48;;;;;;;23.40;4.55;;;4.20;99.90;;;;;;6319977;28;20166;-85
2023/12/15 07:49:50;;;;;;;24.77;4.78;;;4.20;99.90;;;;;;6294504;28;20049;-85
2023/12/15 07:52:52;;;;;;;18.48;4.15;;;4.10;99.90;;;;;;6320103;28;20048;-86
2023/12/15 07:55:54;;;;;;;22.77;4.57;;;4.20;99.90;;;;;;6295797;28;20087;-84
2023/12/15 07:58:55;;;;;;;21.42;4.97;;;4.30;99.90;;;;;;6304446;28;20122;-85
2023/12/15 08:01:59;;;;;;;22.17;4.43;;;4.40;99.90;;;;;;6319903;28;20092;-84
2023/12/15 08:05:01;;;;;;;21.48;4.10;;;4.50;99.90;;;;;;6311995;28;20051;-86
2023/12/15 08:08:04;;;;;;;19.95;4.30;;;4.60;99.90;;;;;;6295487;28;20048;-85
2023/12/15 08:11:06;;;;;;;22.80;3.85;;;4.70;99.90;;;;;;6319597;28;20056;-85
2023/12/15 08:14:09;;;;;;;19.00;3.92;;;4.90;99.90;;;;;;6304587;28;20048;-85
2023/12/15 08:17:10;;;;;;;20.80;4.47;;;5.00;99.90;;;;;;6294517;28;20056;-84
2023/12/15 08:20:12;;;;;;;23.23;4.07;;;5.10;99.90;;;;;;6317748;28;20138;-85
2023/12/15 08:23:14;;;;;;;15.25;3.80;;;5.20;99.90;;;;;;6294734;28;20056;-85
2023/12/15 08:26:15;;;;;;;22.33;5.00;;;5.30;99.90;;;;;;6317730;28;20090;-84
2023/12/15 08:29:17;;;;;;;18.27;4.65;;;5.50;99.90;;;;;;6307753;28;20079;-84
2023/12/15 08:32:19;;;;;;;15.88;4.53;;;5.60;99.90;;;;;;6297020;28;20052;-87
2023/12/15 08:35:21;;;;;;;19.70;5.43;;;5.70;99.90;;;;;;6318739;28;20048;-85
2023/12/15 08:38:24;;;;;;;17.60;4.25;;;5.90;99.90;;;;;;6297051;28;20519;-90
2023/12/15 08:41:26;;;;;;;18.02;4.25;;;6.00;99.90;;;;;;6320984;28;20063;-89
2023/12/15 08:44:28;;;;;;;22.42;4.25;;;6.10;99.90;;;;;;6326883;28;20054;-91
2023/12/15 08:47:35;;;;;;;17.17;4.20;;;6.30;99.90;;;;;;6302648;28;20062;-90
2023/12/15 08:50:37;;;;;;;19.80;4.05;;;6.50;99.90;;;;;;6302208;28;20052;-89
2023/12/15 08:53:39;;;;;;;13.07;3.42;;;6.70;99.90;;;;;;6318914;28;20098;-89
2023/12/15 08:56:41;;;;;;;17.95;3.78;;;6.80;99.90;;;;;;6299453;28;20059;-89
2023/12/15 08:59:43;;;;;;;14.70;3.53;;;6.90;99.90;;;;;;6324510;28;20044;-88
2023/12/15 09:02:45;;;;;;;21.48;3.78;;;6.90;99.90;;;;;;6295369;28;20507;-87
2023/12/15 09:05:47;;;;;;;17.10;3.78;;;7.00;99.90;;;;;;6300745;28;20064;-85
2023/12/15 09:09:10;;;;;;;14.60;3.22;;;7.10;99.90;;;;;;6296721;28;20577;-87
2023/12/15 09:12:13;;;;;;;14.63;4.10;;;7.00;99.90;;;;;;6337147;28;20048;-88
2023/12/15 09:15:15;;;;;;;14.38;3.40;;;7.10;99.90;;;;;;6318026;28;20056;-88
2023/12/15 09:18:16;;;;;;;14.40;3.05;;;7.20;99.90;;;;;;6297243;28;20052;-88
2023/12/15 09:21:18;;;;;;;12.88;3.33;;;7.20;99.90;;;;;;6321234;28;20047;-84
2023/12/15 09:24:20;;;;;;;13.38;3.70;;;7.20;99.90;;;;;;6315841;28;20052;-87
2023/12/15 09:27:21;;;;;;;18.77;3.50;;;7.20;99.90;;;;;;6313446;28;20056;-87
2023/12/15 09:30:23;;;;;;;18.77;3.50;;;7.20;99.90;;;;;;6321431;28;20055;-90
2023/12/15 09:33:25;;;;;;;18.00;4.05;;;7.30;99.90;;;;;;6298930;28;20048;-89
2023/12/15 09:36:27;;;;;;;18.40;4.28;;;7.40;99.90;;;;;;6330808;28;20055;-88
2023/12/15 09:39:29;;;;;;;20.85;4.00;;;7.40;99.90;;;;;;6329243;28;20048;-90
2023/12/15 09:42:31;;;;;;;17.65;4.15;;;7.50;99.90;;;;;;6326477;28;20052;-90
2023/12/15 09:45:33;;;;;;;16.90;3.60;;;7.60;99.90;;;;;;6324535;28;20051;-89
2023/12/15 09:48:35;;;;;;;16.00;3.60;;;7.60;99.90;;;;;;6298902;28;20056;-91
2023/12/15 09:51:37;;;;;;;18.75;3.90;;;7.60;99.90;;;;;;6340590;28;20822;-90
2023/12/15 09:54:39;;;;;;;17.75;3.95;;;7.60;99.90;;;;;;6323658;28;20052;-90
2023/12/15 09:57:41;;;;;;;15.30;3.97;;;7.70;99.90;;;;;;6301103;28;20063;-90
2023/12/15 10:00:42;;;;;;;15.38;3.47;;;7.70;99.90;;;;;;6322897;28;20056;-90
2023/12/15 10:03:44;;;;;;;19.00;4.38;;;7.70;99.90;;;;;;6303430;28;20461;-90
2023/12/15 10:06:46;;;;;;;18.48;3.65;;;7.80;99.90;;;;;;6323763;28;20048;-89
2023/12/15 10:09:48;;;;;;;20.67;4.38;;;7.80;99.90;;;;;;6320706;28;20063;-87
2023/12/15 10:12:49;;;;;;;17.92;3.88;;;7.90;99.90;;;;;;6299287;28;20048;-86
2023/12/15 10:15:51;;;;;;;21.50;4.43;;;7.90;99.90;;;;;;6309820;28;20102;-87
2023/12/15 10:18:53;;;;;;;15.05;3.85;;;7.90;99.90;;;;;;6298461;28;20194;-87
2023/12/15 10:21:55;;;;;;;17.58;3.67;;;8.00;99.90;;;;;;6338868;28;20126;-86
2023/12/15 10:24:56;;;;;;;17.08;3.53;;;8.10;99.90;;;;;;6301662;28;20060;-88
2023/12/15 10:27:58;;;;;;;15.73;3.83;;;8.20;99.90;;;;;;6322473;28;20039;-91
2023/12/15 10:31:03;;;;;;;16.30;4.00;;;8.30;99.90;;;;;;6329736;28;20403;-88
2023/12/15 10:34:05;;;;;;;14.35;3.67;;;8.40;99.90;;;;;;6328557;28;20051;-90
2023/12/15 10:37:07;;;;;;;17.38;3.78;;;8.50;99.90;;;;;;6321621;28;20135;-89
2023/12/15 10:40:09;;;;;;;16.92;4.00;;;8.40;99.90;;;;;;6323326;28;20043;-90
2023/12/15 10:43:11;;;;;;;19.80;4.10;;;8.50;99.90;;;;;;6318640;28;20048;-89
2023/12/15 10:46:13;;;;;;;18.40;3.67;;;8.70;98.80;;;;;;6302550;28;20067;-91
2023/12/15 10:49:15;;;;;;;19.48;3.63;;;8.80;98.60;;;;;;6327429;28;20060;-90
2023/12/15 10:52:21;;;;;;;17.58;3.60;;;8.80;94.40;;;;;;6301623;28;20075;-90
2023/12/15 10:55:26;;;;;;;19.42;3.83;;;8.70;96.40;;;;;;6318211;28;20095;-90
2023/12/15 10:58:30;;;;;;;16.70;3.25;;;8.70;97.20;;;;;;6326333;28;20185;-89
2023/12/15 11:01:31;;;;;;;15.60;3.28;;;8.70;99.40;;;;;;6301416;28;20114;-89
2023/12/15 11:04:33;;;;;;;14.40;3.85;;;8.70;96.80;;;;;;6313198;28;20496;-90
2023/12/15 11:07:35;;;;;;;15.50;3.15;;;8.80;98.50;;;;;;6326169;28;20048;-91
2023/12/15 11:10:37;;;;;;;12.95;3.00;;;8.90;99.00;;;;;;6301734;28;20048;-91
2023/12/15 11:13:38;;;;;;;17.92;3.50;;;9.00;95.00;;;;;;6312484;28;20044;-89
2023/12/15 11:16:41;;;;;;;17.40;4.18;;;9.00;95.80;;;;;;6305999;28;20062;-90
2023/12/15 11:19:43;;;;;;;18.88;4.80;;;9.00;98.20;;;;;;6329579;28;20062;-90
2023/12/15 11:22:45;;;;;;;18.98;4.20;;;9.10;96.20;;;;;;6305322;28;20072;-90
2023/12/15 11:25:47;;;;;;;21.20;5.13;;;9.10;92.20;;;;;;6324778;28;20051;-89
2023/12/15 11:28:49;;;;;;;18.08;4.45;;;9.10;92.00;;;;;;6311271;28;20059;-89
2023/12/15 11:31:54;;;;;;;18.40;3.72;;;9.10;93.60;;;;;;6301227;28;20056;-91
2023/12/15 11:34:57;;;;;;;16.05;3.63;;;9.10;94.60;;;;;;6327218;28;20048;-90
2023/12/15 11:37:59;;;;;;;14.35;3.20;;;9.10;93.60;;;;;;6300183;28;20056;-89
2023/12/15 11:41:02;;;;;;;14.20;3.47;;;9.20;95.50;;;;;;6324467;28;20125;-89
2023/12/15 11:44:03;;;;;;;15.75;3.83;;;9.10;93.20;;;;;;6309327;28;20056;-89
2023/12/15 11:47:06;;;;;;;20.63;3.85;;;9.20;94.80;;;;;;6324622;28;20056;-89
2023/12/15 11:50:08;;;;;;;20.80;4.40;;;9.20;95.40;;;;;;6300392;28;20062;-89
2023/12/15 11:53:09;;;;;;;20.02;4.07;;;9.20;92.70;;;;;;6324388;28;20059;-90
2023/12/15 11:56:11;;;;;;;16.92;3.80;;;9.20;93.60;;;;;;6300566;28;20053;-90
2023/12/15 11:59:13;;;;;;;18.42;4.43;;;9.20;93.00;;;;;;6308509;28;20059;-90
2023/12/15 12:02:16;;;;;;;19.55;3.90;;;9.20;91.40;;;;;;6324940;28;20617;-90
2023/12/15 12:05:21;;;;;;;14.65;3.42;;;9.30;92.20;;;;;;6298652;28;20530;-91
2023/12/15 12:08:23;;;;;;;17.42;4.28;;;9.40;93.60;;;;;;6314676;28;20059;-89
2023/12/15 12:11:25;;;;;;;15.38;3.97;;;9.40;92.40;;;;;;6340272;28;20373;-91
2023/12/15 12:14:27;;;;;;;18.92;5.80;;;9.40;91.80;;;;;;6340269;28;20476;-89
2023/12/15 12:17:29;;;;;;;16.40;4.97;;;9.40;89.70;;;;;;6323904;28;20054;-89
2023/12/15 12:20:31;;;;;;;27.15;9.30;;;9.40;91.10;;;;;;6301649;28;20138;-90
2023/12/15 12:23:33;;;;;;;22.58;8.60;;;9.40;89.40;;;;;;6323997;28;20076;-88
2023/12/15 12:26:46;;;;;;;23.80;8.80;;;9.40;88.80;;;;;;6298933;28;20059;-90
2023/12/15 12:29:48;;;;;;;23.13;7.93;;;9.40;90.90;;;;;;6333879;28;20063;-90
2023/12/15 12:32:50;;;;;;;24.83;8.20;;;9.30;91.50;;;;;;6299810;28;20423;-91
2023/12/15 12:35:52;;;;;;;19.17;6.20;;;9.40;91.90;;;;;;6328028;28;20064;-90
2023/12/15 12:38:53;;;;;;;19.88;5.82;;;9.40;92.10;;;;;;6346611;28;20082;-91
2023/12/15 12:41:55;;;;;;;20.25;5.30;;;9.50;91.70;;;;;;6339136;28;20052;-92
2023/12/15 12:44:57;;;;;;;17.17;4.53;;;9.50;91.90;;;;;;6310741;28;20053;-90
2023/12/15 12:47:59;;;;;;;13.73;3.78;;;9.60;93.20;;;;;;6303929;28;20060;-88
2023/12/15 12:51:01;;;;;;;15.38;4.30;;;9.50;90.00;;;;;;6299288;28;20048;-89
2023/12/15 12:54:02;;;;;;;16.33;4.40;;;9.50;92.70;;;;;;6319977;28;20050;-89
2023/12/15 12:57:04;;;;;;;18.95;3.90;;;9.60;91.50;;;;;;6298867;28;20051;-89
2023/12/15 13:00:09;;;;;;;16.55;3.65;;;9.60;87.70;;;;;;6338744;28;20479;-89
2023/12/15 13:03:11;;;;;;;16.60;3.90;;;9.70;87.70;;;;;;6321784;28;20495;-90
2023/12/15 13:06:13;;;;;;;19.88;3.78;;;9.70;92.00;;;;;;6324103;28;20674;-89
2023/12/15 13:09:18;;;;;;;14.43;3.40;;;9.70;87.70;;;;;;6311049;28;20045;-90
2023/12/15 13:12:20;;;;;;;16.98;3.67;;;9.80;87.80;;;;;;6322850;28;20502;-91
2023/12/15 13:15:22;;;;;;;14.50;3.63;;;9.80;78.10;;;;;;6318475;28;20156;-90
2023/12/15 13:18:25;;;;;;;16.02;3.70;;;9.70;85.40;;;;;;6299398;28;20051;-91
2023/12/15 13:21:27;;;;;;;14.70;4.00;;;9.80;87.80;;;;;;6340047;28;20056;-90
2023/12/15 13:24:29;;;;;;;22.08;4.57;;;9.80;89.90;;;;;;6310054;28;20052;-89
2023/12/15 13:27:33;;;;;;;22.33;4.30;;;9.80;85.10;;;;;;6322849;28;20075;-89
2023/12/15 13:30:35;;;;;;;15.73;4.05;;;9.80;80.80;;;;;;6298138;28;20053;-91
2023/12/15 13:33:39;;;;;;;18.70;4.57;;;9.80;80.40;;;;;;6297913;28;20052;-85
2023/12/15 13:36:40;;;;;;;16.35;3.72;;;9.90;81.40;;;;;;6311899;28;20523;-88
2023/12/15 13:39:42;;;;;;;17.75;3.80;;;9.70;82.20;;;;;;6319062;28;20063;-89
2023/12/15 13:42:44;;;;;;;20.05;4.43;;;9.70;84.60;;;;;;6296501;28;20109;-86
2023/12/15 13:45:46;;;;;;;17.85;3.95;;;9.70;76.10;;;;;;6315017;28;20560;-85
2023/12/15 13:48:58;;;;;;;16.33;3.63;;;9.60;79.50;;;;;;6317972;28;20510;-86
2023/12/15 13:52:00;;;;;;;18.00;4.30;;;9.60;87.60;;;;;;6293585;28;20052;-88
2023/12/15 13:55:03;;;;;;;15.88;4.47;;;9.70;81.20;;;;;;6319035;28;20492;-87
2023/12/15 13:58:05;;;;;;;16.73;4.20;;;9.70;87.70;;;;;;6303807;28;20484;-88
2023/12/15 14:01:07;;;;;;;19.13;4.93;;;9.70;87.70;;;;;;6324621;28;20097;-88
2023/12/15 14:04:09;;;;;;;18.88;5.80;;;9.60;83.90;;;;;;6306844;28;20067;-88
2023/12/15 14:07:10;;;;;;;15.23;4.72;;;9.60;84.80;;;;;;6299261;28;20157;-89
2023/12/15 14:10:12;;;;;;;20.73;5.25;;;9.70;90.90;;;;;;6322899;28;20055;-88
2023/12/15 14:13:16;;;;;;;24.70;5.10;;;9.70;93.10;;;;;;6303770;28;20492;-88
2023/12/15 14:16:18;;;;;;;24.20;5.13;;;9.70;92.20;;;;;;6325345;28;20596;-90
2023/12/15 14:19:24;;;;;;;23.90;4.60;;;9.70;90.70;;;;;;6299642;28;20563;-90
2023/12/15 14:22:26;;;;;;;23.15;5.38;;;9.70;91.20;;;;;;6342636;28;20052;-88
2023/12/15 14:25:29;;;;;;;22.85;5.07;;;9.70;85.20;;;;;;6322379;28;20500;-89
2023/12/15 14:28:31;;;;;;;20.88;5.28;;;9.70;92.40;;;;;;6304670;28;20538;-90
2023/12/15 14:31:33;;;;;;;19.48;4.90;;;9.60;91.30;;;;;;6297502;28;20044;-90
2023/12/15 14:34:35;;;;;;;18.85;4.57;;;9.70;89.70;;;;;;6333140;28;20057;-91
2023/12/15 14:37:39;;;;;;;17.17;4.97;;;9.70;85.60;;;;;;6304447;28;20511;-91
2023/12/15 14:40:41;;;;;;;17.75;4.50;;;9.70;88.30;;;;;;6329161;28;20071;-91
2023/12/15 14:43:43;;;;;;;19.38;4.78;;;9.70;91.30;;;;;;6315577;28;20131;-92
2023/12/15 14:46:45;;;;;;;17.40;4.68;;;9.70;90.20;;;;;;6303747;28;20060;-94
2023/12/15 14:49:48;;;;;;;19.25;4.28;;;9.70;89.50;;;;;;6328001;28;20056;-90
2023/12/15 14:52:50;;;;;;;17.52;4.07;;;9.70;90.00;;;;;;6307404;28;20098;-91
2023/12/15 14:55:52;;;;;;;18.17;4.15;;;9.60;90.80;;;;;;6327527;28;20047;-91
2023/12/15 14:58:53;;;;;;;12.82;3.75;;;9.50;87.10;;;;;;6315443;28;20048;-92
2023/12/15 15:01:57;;;;;;;17.33;4.10;;;9.50;91.80;;;;;;6303814;28;20150;-92
2023/12/15 15:04:59;;;;;;;16.65;4.40;;;9.50;87.60;;;;;;6315794;28;20062;-92
2023/12/15 15:08:01;;;;;;;16.40;4.32;;;9.50;85.10;;;;;;6330076;28;20052;-90
2023/12/15 15:11:03;;;;;;;18.15;4.82;;;9.50;89.50;;;;;;6307076;28;20068;-91
2023/12/15 15:14:04;;;;;;;13.45;4.32;;;9.50;89.90;;;;;;6318185;28;20127;-88
2023/12/15 15:17:07;;;;;;;14.25;4.20;;;9.40;82.20;;;;;;6333877;28;20051;-89
2023/12/15 15:20:09;;;;;;;18.60;4.75;;;9.50;75.70;;;;;;6306010;28;20441;-89
2023/12/15 15:23:11;;;;;;;16.23;3.85;;;9.50;86.00;;;;;;6328768;28;20051;-89
2023/12/15 15:26:15;;;;;;;18.20;4.97;;;9.50;82.30;;;;;;6306923;28;20056;-91
2023/12/15 15:29:17;;;;;;;16.30;3.60;;;9.40;79.80;;;;;;6308841;28;20052;-88
2023/12/15 15:32:19;;;;;;;15.95;3.55;;;9.40;71.20;;;;;;6323705;28;20075;-88
2023/12/15 15:35:21;;;;;;;16.70;3.95;;;9.30;78.60;;;;;;6297825;28;20049;-90
2023/12/15 15:38:23;;;;;;;21.90;4.22;;;9.30;82.00;;;;;;6324669;28;20276;-88
2023/12/15 15:41:25;;;;;;;15.60;3.78;;;9.20;80.50;;;;;;6300959;28;20045;-90
2023/12/15 15:44:31;;;;;;;14.57;4.00;;;9.20;83.30;;;;;;6324738;28;20048;-91